Time;durP1;ratioP1;P1;durP2;ratioP2;P2;SDS_P1;SDS_P2;PMS_P1;PMS_P2;Temp;Humidity;BMP_temperature;BMP_pressure;BME280_temperature;BME280_humidity;BME280_pressure;Samples;Min_cycle;Max_cycle;Signal;HPM_P1;HPM_P2
2020/12/25 00:01:47;;;;;;;7.53;1.00;;;;;;;3.69;84.10;99565.94;120327;1148;22924;-61
2020/12/25 00:04:16;;;;;;;3.43;0.90;;;;;;;3.67;83.94;99558.12;120155;1148;22942;-61
2020/12/25 00:06:45;;;;;;;6.60;1.70;;;;;;;3.67;83.91;99560.88;120295;1147;22934;-61
2020/12/25 00:09:14;;;;;;;7.70;1.20;;;;;;;3.67;84.18;99560.09;120109;1148;26018;-62
2020/12/25 00:11:43;;;;;;;6.20;1.10;;;;;;;3.67;84.08;99558.12;120402;1147;22942;-61
2020/12/25 00:14:13;;;;;;;5.40;0.80;;;;;;;3.65;84.10;99565.30;120157;1148;22927;-61
2020/12/25 00:16:42;;;;;;;5.43;1.20;;;;;;;3.67;84.02;99571.92;120114;1148;22933;-60
2020/12/25 00:19:10;;;;;;;4.50;1.20;;;;;;;3.67;84.00;99569.16;120203;1148;22991;-59
2020/12/25 00:21:40;;;;;;;5.00;1.10;;;;;;;3.69;83.92;99577.77;120362;1148;24588;-60
2020/12/25 00:24:09;;;;;;;8.45;1.30;;;;;;;3.72;83.96;99576.88;120468;1148;22917;-62
2020/12/25 00:26:38;;;;;;;6.03;1.12;;;;;;;3.74;83.90;99590.22;120496;1147;22920;-60
2020/12/25 00:29:07;;;;;;;3.75;0.85;;;;;;;3.75;84.17;99591.75;120330;1148;22945;-60
2020/12/25 00:31:39;;;;;;;6.40;1.10;;;;;;;3.74;84.00;99592.98;120319;1148;22941;-59
2020/12/25 00:34:09;;;;;;;5.30;1.20;;;;;;;3.73;84.19;99600.48;120237;1147;23457;-62
2020/12/25 00:36:40;;;;;;;6.77;1.03;;;;;;;3.75;83.97;99597.27;120455;1148;23057;-59
2020/12/25 00:39:12;;;;;;;6.22;1.45;;;;;;;3.75;84.08;99606.33;120241;1148;25992;-60
2020/12/25 00:41:43;;;;;;;5.03;1.17;;;;;;;3.74;83.83;99607.56;120402;1147;22920;-60
2020/12/25 00:44:13;;;;;;;6.28;1.22;;;;;;;3.75;83.95;99602.80;120139;1148;22991;-60
2020/12/25 00:46:42;;;;;;;6.12;1.20;;;;;;;3.76;83.92;99618.16;120443;1147;24691;-61
2020/12/25 00:49:12;;;;;;;6.55;1.37;;;;;;;3.77;84.06;99625.20;120228;1148;22942;-60
2020/12/25 00:51:41;;;;;;;8.73;1.50;;;;;;;3.77;84.08;99634.27;120405;1147;23080;-61
2020/12/25 00:54:10;;;;;;;6.03;1.30;;;;;;;3.77;84.23;99625.98;120275;1147;22945;-61
2020/12/25 00:56:39;;;;;;;4.50;1.20;;;;;;;3.79;83.82;99629.06;120040;1148;23074;-62
2020/12/25 00:59:09;;;;;;;4.47;1.00;;;;;;;3.79;83.96;99631.82;120057;1148;25641;-63
2020/12/25 01:01:37;;;;;;;;;;;;;;;3.79;84.01;99633.80;120260;1148;22971;-62
2020/12/25 01:04:06;;;;;;;4.50;0.97;;;;;;;3.79;83.92;99648.39;120159;1148;21668;-61
2020/12/25 01:06:35;;;;;;;5.93;0.97;;;;;;;3.78;83.74;99654.37;120311;1148;22938;-59
2020/12/25 01:09:04;;;;;;;5.40;1.00;;;;;;;3.76;83.69;99652.06;120276;1148;22903;-60
2020/12/25 01:11:33;;;;;;;4.60;1.00;;;;;;;3.77;83.89;99656.34;120232;1148;22992;-61
2020/12/25 01:14:03;;;;;;;4.53;1.00;;;;;;;3.77;83.84;99661.09;120038;1148;24486;-61
2020/12/25 01:16:31;;;;;;;4.20;0.90;;;;;;;3.77;84.12;99667.39;120085;1148;23015;-61
2020/12/25 01:19:01;;;;;;;4.75;1.40;;;;;;;3.78;84.00;99674.47;120190;1148;22900;-61
2020/12/25 01:21:30;;;;;;;6.00;1.33;;;;;;;3.78;84.34;99668.95;120304;1148;22914;-62
2020/12/25 01:23:59;;;;;;;6.17;1.20;;;;;;;3.79;83.83;99673.23;120233;1148;26095;-61
2020/12/25 01:26:29;;;;;;;4.90;1.23;;;;;;;3.79;84.25;99673.23;120198;1148;22907;-62
2020/12/25 01:29:03;;;;;;;5.40;1.20;;;;;;;3.81;84.24;99670.02;120195;1148;27761;-59
2020/12/25 01:31:32;;;;;;;5.77;1.37;;;;;;;3.81;84.37;99673.56;120260;1148;23122;-61
2020/12/25 01:34:02;;;;;;;4.95;1.20;;;;;;;3.83;84.29;99676.64;120022;1148;23027;-62
2020/12/25 01:36:30;;;;;;;5.90;1.27;;;;;;;3.83;84.47;99676.64;120206;1148;23067;-60
2020/12/25 01:38:59;;;;;;;7.43;1.53;;;;;;;3.82;84.31;99675.12;120156;1148;23109;-60
2020/12/25 01:41:28;;;;;;;5.70;1.63;;;;;;;3.82;84.21;99679.86;119993;1147;22913;-60
2020/12/25 01:43:57;;;;;;;5.60;1.40;;;;;;;3.81;84.29;99676.32;120264;1148;22938;-61
2020/12/25 01:46:27;;;;;;;7.10;1.63;;;;;;;3.83;84.46;99675.87;119998;1148;23080;-61
2020/12/25 01:48:57;;;;;;;8.57;1.47;;;;;;;3.81;84.50;99667.26;120352;1147;22966;-62
2020/12/25 01:51:26;;;;;;;7.00;1.60;;;;;;;3.81;84.53;99678.30;119999;1148;22941;-61
2020/12/25 01:53:55;;;;;;;7.30;1.60;;;;;;;3.81;84.39;99670.02;120036;1148;22924;-61
2020/12/25 01:56:24;;;;;;;6.70;1.80;;;;;;;3.80;84.40;99676.78;120482;1148;22992;-60
2020/12/25 01:58:54;;;;;;;9.75;1.60;;;;;;;3.80;84.52;99677.55;120213;1148;22935;-61
2020/12/25 02:01:23;;;;;;;8.87;1.70;;;;;;;3.79;84.37;99678.76;120268;1147;22916;-61
2020/12/25 02:03:53;;;;;;;5.57;1.30;;;;;;;3.78;84.40;99676.45;120249;1148;22927;-60
2020/12/25 02:06:22;;;;;;;9.10;1.90;;;;;;;3.76;84.62;99685.19;120047;1148;22910;-61
2020/12/25 02:08:51;;;;;;;7.27;1.77;;;;;;;3.75;84.66;99686.39;120228;1147;26478;-60
2020/12/25 02:11:22;;;;;;;7.97;2.10;;;;;;;3.74;84.69;99690.38;120225;1148;22966;-61
2020/12/25 02:13:51;;;;;;;11.37;2.07;;;;;;;3.75;84.67;99691.13;120326;1147;22913;-61
2020/12/25 02:16:19;;;;;;;8.70;1.63;;;;;;;3.75;84.90;99696.66;120060;1148;22913;-61
2020/12/25 02:18:48;;;;;;;12.47;2.60;;;;;;;3.75;84.79;99697.44;120034;1148;22942;-60
2020/12/25 02:21:18;;;;;;;9.50;2.30;;;;;;;3.76;84.77;99692.69;120310;1148;22941;-60
2020/12/25 02:23:47;;;;;;;7.13;1.67;;;;;;;3.76;84.75;99709.25;120104;1147;22917;-61
2020/12/25 02:26:16;;;;;;;7.50;1.70;;;;;;;3.76;84.97;99698.21;119988;1148;23005;-61
2020/12/25 02:28:46;;;;;;;11.00;2.33;;;;;;;3.75;84.75;99704.94;120112;1148;22999;-61
2020/12/25 02:31:14;;;;;;;10.00;1.60;;;;;;;3.75;84.79;99705.72;120352;1147;26073;-60
2020/12/25 02:33:43;;;;;;;8.37;1.77;;;;;;;3.77;84.83;99708.02;120280;1148;22999;-62
2020/12/25 02:36:12;;;;;;;5.80;1.35;;;;;;;3.78;84.90;99710.36;120009;1148;27284;-61
2020/12/25 02:38:41;;;;;;;9.37;1.80;;;;;;;3.78;84.82;99707.59;120248;1148;23077;-62
2020/12/25 02:41:11;;;;;;;7.80;1.90;;;;;;;3.78;84.93;99710.36;120386;1147;23125;-60
2020/12/25 02:43:41;;;;;;;5.92;1.50;;;;;;;3.77;85.01;99703.28;120102;1148;26030;-61
2020/12/25 02:46:10;;;;;;;6.80;1.23;;;;;;;3.78;85.26;99706.82;120096;1148;22844;-60
2020/12/25 02:48:39;;;;;;;9.07;1.60;;;;;;;3.76;85.40;99709.25;120252;1147;22919;-62
2020/12/25 02:51:08;;;;;;;5.83;1.20;;;;;;;3.77;85.30;99706.05;120237;1148;23373;-60
2020/12/25 02:53:38;;;;;;;8.97;1.60;;;;;;;3.76;85.34;99703.73;120226;1148;27226;-61
2020/12/25 02:56:06;;;;;;;7.77;1.60;;;;;;;3.74;85.37;99712.47;120278;1148;22945;-63
2020/12/25 02:58:35;;;;;;;9.80;2.07;;;;;;;3.74;85.50;99714.45;120261;1148;23025;-62
2020/12/25 03:01:04;;;;;;;6.00;1.50;;;;;;;3.73;85.34;99710.91;120250;1148;28558;-62
2020/12/25 03:03:33;;;;;;;10.37;2.03;;;;;;;3.73;85.56;99716.44;120237;1148;22931;-62
2020/12/25 03:06:02;;;;;;;6.73;1.53;;;;;;;3.72;85.62;99720.42;120242;1147;26404;-63
2020/12/25 03:08:33;;;;;;;10.07;2.07;;;;;;;3.73;85.61;99721.17;120577;1148;22990;-61
2020/12/25 03:11:02;;;;;;;8.85;1.98;;;;;;;3.71;85.40;99720.85;120547;1148;26069;-62
2020/12/25 03:13:31;;;;;;;10.97;2.03;;;;;;;3.70;85.45;99722.08;120363;1148;23428;-61
2020/12/25 03:16:01;;;;;;;7.60;1.70;;;;;;;3.70;85.54;99730.36;120293;1148;24603;-62
2020/12/25 03:18:31;;;;;;;6.03;1.43;;;;;;;3.69;85.87;99734.33;120408;1147;27682;-61
2020/12/25 03:21:00;;;;;;;9.33;2.00;;;;;;;3.66;85.95;99730.45;120379;1152;22941;-61
2020/12/25 03:23:29;;;;;;;8.70;1.70;;;;;;;3.62;86.00;99724.28;120331;1147;23094;-61
2020/12/25 03:25:58;;;;;;;11.07;1.83;;;;;;;3.61;85.86;99721.98;120267;1148;22945;-61
2020/12/25 03:28:27;;;;;;;8.63;1.87;;;;;;;3.60;85.67;99729.48;120201;1146;22993;-61
2020/12/25 03:30:56;;;;;;;10.17;1.87;;;;;;;3.58;85.97;99731.91;120286;1148;23336;-64
2020/12/25 03:33:27;;;;;;;9.90;2.17;;;;;;;3.56;85.93;99734.34;120315;1148;22970;-61
2020/12/25 03:35:56;;;;;;;11.97;2.35;;;;;;;3.56;85.95;99728.08;120126;1148;25456;-61
2020/12/25 03:38:25;;;;;;;8.63;2.10;;;;;;;3.54;86.04;99722.98;120300;1148;22916;-61
2020/12/25 03:40:54;;;;;;;10.65;2.10;;;;;;;3.55;86.01;99724.53;120363;1147;22916;-61
2020/12/25 03:43:24;;;;;;;9.40;1.70;;;;;;;3.56;85.96;99728.08;120197;1148;23084;-61
2020/12/25 03:45:53;;;;;;;9.05;1.80;;;;;;;3.56;86.08;99723.30;120108;1148;23048;-63
2020/12/25 03:48:22;;;;;;;11.03;2.43;;;;;;;3.57;86.13;99724.86;120138;1148;22945;-63
2020/12/25 03:50:51;;;;;;;9.07;1.87;;;;;;;3.57;86.01;99724.08;120053;1148;23010;-61
2020/12/25 03:53:20;;;;;;;6.33;1.60;;;;;;;3.56;86.01;99730.83;120202;1147;23080;-63
2020/12/25 03:55:49;;;;;;;12.40;1.75;;;;;;;3.58;86.07;99736.69;120219;1148;23002;-62
2020/12/25 03:58:19;;;;;;;8.20;1.87;;;;;;;3.57;86.01;99737.88;120283;1148;22920;-63
2020/12/25 04:00:48;;;;;;;8.60;2.10;;;;;;;3.55;86.11;99746.61;120077;1148;27257;-62
2020/12/25 04:03:17;;;;;;;7.53;1.33;;;;;;;3.55;86.23;99749.37;120159;1148;22910;-62
2020/12/25 04:05:46;;;;;;;5.40;1.40;;;;;;;3.54;85.87;99756.09;120174;1147;22940;-62
2020/12/25 04:08:15;;;;;;;5.17;1.27;;;;;;;3.56;86.16;99761.20;120141;1148;22921;-61
2020/12/25 04:10:44;;;;;;;7.03;1.20;;;;;;;3.55;86.33;99768.69;120281;1148;22939;-62
2020/12/25 04:13:13;;;;;;;5.65;1.20;;;;;;;3.53;86.46;99757.33;120268;1148;22966;-61
2020/12/25 04:15:44;;;;;;;6.57;1.33;;;;;;;3.53;86.21;99773.10;120162;1148;22918;-62
2020/12/25 04:18:13;;;;;;;5.80;1.50;;;;;;;3.53;86.20;99770.34;120021;1147;22931;-61
2020/12/25 04:20:42;;;;;;;8.00;1.47;;;;;;;3.54;86.00;99767.13;120276;1148;22883;-61
2020/12/25 04:23:11;;;;;;;6.70;1.60;;;;;;;3.55;86.18;99757.66;120049;1147;22923;-61
2020/12/25 04:25:40;;;;;;;4.00;1.10;;;;;;;3.55;85.98;99760.41;120279;1148;22916;-63
2020/12/25 04:28:09;;;;;;;4.27;1.10;;;;;;;3.55;86.21;99767.91;120048;1148;22972;-60
2020/12/25 04:30:38;;;;;;;6.07;1.10;;;;;;;3.53;86.16;99773.10;120093;1148;22915;-63
2020/12/25 04:33:07;;;;;;;5.40;1.10;;;;;;;3.51;86.13;99772.77;120255;1148;22938;-62
2020/12/25 04:35:36;;;;;;;5.23;1.20;;;;;;;3.50;86.13;99780.27;120282;1148;22924;-62
2020/12/25 04:38:05;;;;;;;4.60;1.20;;;;;;;3.49;86.35;99775.98;120209;1147;23002;-61
2020/12/25 04:40:35;;;;;;;7.33;1.23;;;;;;;3.47;86.27;99772.89;120080;1148;27275;-63
2020/12/25 04:43:06;;;;;;;4.93;1.30;;;;;;;3.48;86.06;99777.19;120448;1147;22927;-61
2020/12/25 04:45:35;;;;;;;9.25;1.40;;;;;;;3.47;86.23;99777.63;121536;1147;22941;-62
2020/12/25 04:48:05;;;;;;;5.80;1.10;;;;;;;3.46;86.11;99776.08;120391;1148;22945;-62
2020/12/25 04:50:35;;;;;;;4.60;1.10;;;;;;;3.43;86.12;99777.75;120405;1148;22973;-62
2020/12/25 04:53:05;;;;;;;7.17;1.30;;;;;;;3.43;86.12;99786.03;120143;1147;22919;-61
2020/12/25 04:55:34;;;;;;;4.62;0.68;;;;;;;3.41;86.17;99788.46;120235;1147;23060;-62
2020/12/25 04:58:03;;;;;;;5.80;1.30;;;;;;;3.40;86.23;99788.88;120048;1148;22904;-63
2020/12/25 05:00:32;;;;;;;3.33;0.70;;;;;;;3.39;86.26;99790.89;120060;1148;26465;-62
2020/12/25 05:03:01;;;;;;;3.53;0.80;;;;;;;3.35;86.18;99792.98;120008;1148;22983;-61
2020/12/25 05:05:32;;;;;;;4.40;0.95;;;;;;;3.33;86.38;99795.41;120136;1148;22977;-61
2020/12/25 05:08:02;;;;;;;5.55;0.98;;;;;;;3.32;86.37;99790.31;120300;1147;23138;-61
2020/12/25 05:10:31;;;;;;;4.00;0.98;;;;;;;3.31;86.79;99806.09;120170;1148;22942;-61
2020/12/25 05:13:00;;;;;;;5.77;1.17;;;;;;;3.27;86.35;99794.39;120156;1148;22926;-61
2020/12/25 05:15:29;;;;;;;5.13;1.00;;;;;;;3.25;86.46;99805.09;120187;1148;22928;-62
2020/12/25 05:17:59;;;;;;;5.50;1.10;;;;;;;3.25;86.65;99807.85;120250;1147;22941;-61
2020/12/25 05:20:31;;;;;;;5.23;0.90;;;;;;;3.25;86.34;99807.85;120561;1147;22917;-63
2020/12/25 05:23:10;;;;;;;4.97;1.10;;;;;;;3.25;86.56;99802.33;120100;1148;22999;-60
2020/12/25 05:25:41;;;;;;;6.40;1.60;;;;;;;3.26;86.63;99806.66;120369;1147;23051;-63
2020/12/25 05:28:14;;;;;;;5.70;1.73;;;;;;;3.27;86.60;99811.72;120042;1148;23061;-62
2020/12/25 05:30:45;;;;;;;6.23;1.10;;;;;;;3.24;86.45;99807.10;120158;1148;22916;-61
2020/12/25 05:33:16;;;;;;;4.07;1.00;;;;;;;3.22;86.61;99815.05;120294;1148;22948;-61
2020/12/25 05:35:52;;;;;;;8.15;1.30;;;;;;;3.20;86.30;99811.17;120301;1147;26373;-62
2020/12/25 05:38:22;;;;;;;5.07;1.53;;;;;;;3.18;86.67;99814.38;120304;1148;27813;-61
2020/12/25 05:40:51;;;;;;;4.05;0.80;;;;;;;3.16;86.46;99813.27;120655;1147;22904;-60
2020/12/25 05:43:20;;;;;;;4.53;0.97;;;;;;;3.16;86.74;99818.78;120412;1148;22941;-61
2020/12/25 05:45:49;;;;;;;6.67;1.20;;;;;;;3.13;86.88;99820.42;120260;1148;22935;-61
2020/12/25 05:48:18;;;;;;;5.90;1.20;;;;;;;3.13;86.94;99822.41;120372;1148;23013;-62
2020/12/25 05:50:48;;;;;;;6.20;1.10;;;;;;;3.13;87.04;99825.16;120494;1148;24544;-60
2020/12/25 05:53:17;;;;;;;5.27;1.03;;;;;;;3.11;86.94;99833.10;120370;1148;22913;-62
2020/12/25 05:55:47;;;;;;;5.05;1.00;;;;;;;3.11;86.81;99827.59;120063;1148;22944;-63
2020/12/25 05:58:16;;;;;;;3.72;1.00;;;;;;;3.12;87.01;99837.42;120280;1148;23077;-60
2020/12/25 06:00:45;;;;;;;5.97;1.20;;;;;;;3.11;87.16;99833.87;120099;1148;23109;-61
2020/12/25 06:03:16;;;;;;;4.43;1.10;;;;;;;3.11;87.06;99842.16;120191;1148;28046;-63
2020/12/25 06:05:46;;;;;;;;;;;;;;;3.13;86.93;99848.00;120531;1147;22969;-61
2020/12/25 06:08:24;;;;;;;6.90;1.35;;;;;;;3.13;87.07;99850.77;120347;1148;23866;-62
2020/12/25 06:11:01;;;;;;;6.30;1.50;;;;;;;3.14;86.89;99852.33;120312;1148;22966;-61
2020/12/25 06:13:41;;;;;;;6.03;1.40;;;;;;;3.15;86.77;99847.56;120143;1148;22972;-62
2020/12/25 06:16:14;;;;;;;4.90;1.20;;;;;;;3.16;86.65;99849.13;120338;1147;22993;-62
2020/12/25 06:18:54;;;;;;;5.83;1.43;;;;;;;3.15;86.78;99851.09;120352;1148;27223;-61
2020/12/25 06:21:30;;;;;;;6.00;1.10;;;;;;;3.15;87.16;99858.59;120306;1148;22923;-61
2020/12/25 06:24:02;;;;;;;3.80;0.90;;;;;;;3.14;87.12;99862.58;120325;1148;22999;-62
2020/12/25 06:26:34;;;;;;;4.70;1.30;;;;;;;3.13;87.03;99864.55;120076;1148;26213;-61
2020/12/25 06:29:04;;;;;;;5.80;1.43;;;;;;;3.15;87.07;99866.86;120365;1148;26350;-62
2020/12/25 06:31:44;;;;;;;7.95;1.30;;;;;;;3.15;86.76;99870.41;120364;1147;26083;-61
2020/12/25 06:34:14;;;;;;;5.53;1.13;;;;;;;3.18;87.23;99877.03;120275;1147;27730;-61
2020/12/25 06:36:44;;;;;;;;;;;;;;;3.19;87.31;99878.57;120444;1147;23003;-61
2020/12/25 06:39:14;;;;;;;3.53;1.10;;;;;;;3.18;87.06;99879.80;120239;1148;21572;-61
2020/12/25 06:41:45;;;;;;;5.57;1.43;;;;;;;3.17;87.23;99883.75;120336;1147;22920;-62
2020/12/25 06:44:17;;;;;;;6.17;1.17;;;;;;;3.15;87.04;99888.93;120305;1148;22938;-63
2020/12/25 06:46:51;;;;;;;4.93;1.30;;;;;;;3.12;87.23;99892.58;120281;1147;22932;-61
2020/12/25 06:49:21;;;;;;;8.37;1.60;;;;;;;3.12;87.56;99895.34;120261;1148;27393;-63
2020/12/25 06:51:49;;;;;;;;;;;;;;;3.14;86.92;99903.95;120049;1148;26655;-61
2020/12/25 06:54:19;;;;;;;6.83;1.87;;;;;;;3.15;87.01;99909.02;120248;1148;21720;-63
2020/12/25 06:56:53;;;;;;;8.33;1.55;;;;;;;3.17;87.33;99917.63;120042;1148;22949;-61
2020/12/25 06:59:23;;;;;;;5.30;1.40;;;;;;;3.19;87.29;99919.95;120149;1147;25737;-62
2020/12/25 07:01:53;;;;;;;6.50;1.65;;;;;;;3.20;87.30;99921.51;120341;1148;22942;-61
2020/12/25 07:04:26;;;;;;;6.97;1.80;;;;;;;3.19;87.20;99915.20;120268;1147;26516;-61
2020/12/25 07:06:59;;;;;;;7.23;1.50;;;;;;;3.20;87.42;99922.28;120017;1148;22941;-61
2020/12/25 07:09:37;;;;;;;7.40;1.90;;;;;;;3.21;87.25;99929.34;120136;1148;22948;-62
2020/12/25 07:12:13;;;;;;;5.73;1.70;;;;;;;3.21;87.14;99937.61;120401;1147;22948;-61
2020/12/25 07:14:43;;;;;;;9.20;2.00;;;;;;;3.20;87.26;99936.08;120063;1148;22927;-61
2020/12/25 07:17:12;;;;;;;6.70;1.67;;;;;;;3.18;87.19;99935.75;120042;1148;22942;-60
2020/12/25 07:19:43;;;;;;;7.93;2.10;;;;;;;3.18;87.74;99934.96;120103;1147;23898;-61
2020/12/25 07:22:12;;;;;;;6.60;1.60;;;;;;;3.16;87.19;99940.92;120278;1148;22931;-62
2020/12/25 07:24:43;;;;;;;9.80;1.90;;;;;;;3.15;87.38;99946.86;120012;1148;27295;-61
2020/12/25 07:27:12;;;;;;;;;;;;;;;3.15;87.69;99949.61;120440;1148;23186;-63
2020/12/25 07:29:44;;;;;;;8.40;2.10;;;;;;;3.16;87.30;99951.17;120077;1147;21578;-63
2020/12/25 07:32:14;;;;;;;7.97;2.13;;;;;;;3.16;87.28;99957.47;120300;1147;26624;-61
2020/12/25 07:34:43;;;;;;;10.25;2.60;;;;;;;3.17;87.46;99966.50;120314;1147;23083;-61
2020/12/25 07:37:14;;;;;;;8.13;2.33;;;;;;;3.17;87.52;99961.77;120173;1148;22993;-60
2020/12/25 07:39:43;;;;;;;12.35;2.42;;;;;;;3.19;87.29;99967.62;120355;1147;23029;-60
2020/12/25 07:42:12;;;;;;;8.90;2.20;;;;;;;3.22;87.18;99977.02;120250;1148;22945;-60
2020/12/25 07:44:43;;;;;;;9.47;1.90;;;;;;;3.24;87.55;99980.89;120292;1148;22902;-60
2020/12/25 07:47:12;;;;;;;10.83;2.17;;;;;;;3.24;87.56;99982.87;120065;1147;22928;-62
2020/12/25 07:49:46;;;;;;;9.00;2.00;;;;;;;3.23;87.57;99981.30;120096;1148;23104;-61
2020/12/25 07:52:16;;;;;;;7.10;1.97;;;;;;;3.22;87.41;99980.55;120220;1147;22916;-60
2020/12/25 07:54:46;;;;;;;10.30;2.33;;;;;;;3.22;87.72;99982.53;120137;1148;22907;-61
2020/12/25 07:57:18;;;;;;;9.78;2.20;;;;;;;3.21;87.44;99978.20;120039;1147;22926;-60
2020/12/25 07:59:48;;;;;;;9.93;2.37;;;;;;;3.20;87.43;99990.47;120088;1147;22942;-60
2020/12/25 08:02:18;;;;;;;9.93;2.15;;;;;;;3.19;87.44;99992.45;120215;1148;23508;-60
2020/12/25 08:04:47;;;;;;;12.37;2.35;;;;;;;3.18;87.27;99993.67;120449;1148;22898;-62
2020/12/25 08:07:17;;;;;;;10.30;2.47;;;;;;;3.18;87.57;99992.89;120117;1148;22967;-61
2020/12/25 08:09:46;;;;;;;8.93;2.33;;;;;;;3.18;87.25;99995.64;120214;1147;22935;-61
2020/12/25 08:12:19;;;;;;;8.83;2.10;;;;;;;3.18;87.48;99996.42;120145;1148;22906;-60
2020/12/25 08:14:51;;;;;;;14.05;3.10;;;;;;;3.20;87.62;100004.27;120237;1148;22939;-60
2020/12/25 08:17:20;;;;;;;11.90;2.90;;;;;;;3.21;87.49;100008.55;120110;1148;22906;-61
2020/12/25 08:19:49;;;;;;;11.90;2.70;;;;;;;3.21;87.06;100009.34;120402;1148;24741;-61
2020/12/25 08:22:19;;;;;;;10.57;2.43;;;;;;;3.22;87.32;100004.59;120173;1148;22949;-60
2020/12/25 08:24:48;;;;;;;12.10;3.05;;;;;;;3.22;87.27;100012.88;120317;1147;23117;-60
2020/12/25 08:27:19;;;;;;;8.93;2.10;;;;;;;3.23;86.65;100009.67;119992;1148;26457;-62
2020/12/25 08:29:49;;;;;;;;;;;;;;;3.24;87.34;100018.73;120281;1148;22868;-60
2020/12/25 08:32:18;;;;;;;12.13;2.92;;;;;;;3.23;87.23;100019.92;120278;1147;24520;-60
2020/12/25 08:34:47;;;;;;;10.27;2.23;;;;;;;3.23;86.92;100023.47;120163;1148;26631;-60
2020/12/25 08:37:24;;;;;;;9.07;1.83;;;;;;;3.25;87.28;100025.78;120406;1147;22903;-62
2020/12/25 08:39:54;;;;;;;15.90;2.50;;;;;;;3.27;86.91;100037.16;120526;1147;23214;-63
2020/12/25 08:42:22;;;;;;;;;;;;;;;3.27;86.97;100046.22;120835;1147;23012;-60
2020/12/25 08:44:57;;;;;;;9.50;2.30;;;;;;;3.27;86.92;100050.95;120369;1148;21619;-61
2020/12/25 08:47:27;;;;;;;8.73;2.17;;;;;;;3.27;86.83;100037.94;120271;1148;27754;-61
2020/12/25 08:49:56;;;;;;;8.53;2.10;;;;;;;3.29;86.82;100043.80;120388;1148;22952;-60
2020/12/25 08:52:26;;;;;;;8.28;2.15;;;;;;;3.32;86.82;100046.90;120126;1148;22987;-61
2020/12/25 08:54:59;;;;;;;8.90;2.37;;;;;;;3.34;86.51;100050.00;120208;1148;24591;-64
2020/12/25 08:57:30;;;;;;;11.27;2.87;;;;;;;3.36;86.82;100056.63;120136;1147;26331;-61
2020/12/25 09:00:10;;;;;;;;;;;;;;;3.41;87.04;100067.16;120323;1148;22933;-62
2020/12/25 09:02:39;;;;;;;10.53;2.83;;;;;;;3.42;86.76;100065.15;120432;1147;21566;-62
2020/12/25 09:05:08;;;;;;;11.93;2.70;;;;;;;3.44;86.55;100074.55;120862;1147;22890;-62
2020/12/25 09:07:38;;;;;;;12.93;2.43;;;;;;;3.45;86.57;100073.36;120574;1148;22910;-61
2020/12/25 09:10:07;;;;;;;9.60;2.27;;;;;;;3.46;86.08;100080.41;120255;1147;22918;-61
2020/12/25 09:12:36;;;;;;;9.57;2.50;;;;;;;3.46;86.12;100087.91;120105;1148;22997;-62
2020/12/25 09:15:05;;;;;;;11.27;2.73;;;;;;;3.45;86.33;100084.39;120047;1148;22941;-62
2020/12/25 09:17:34;;;;;;;10.30;2.57;;;;;;;3.43;86.12;100089.57;120174;1148;22932;-63
2020/12/25 09:20:04;;;;;;;10.13;2.67;;;;;;;3.41;86.09;100086.47;120321;1148;23456;-65
2020/12/25 09:22:33;;;;;;;13.57;3.57;;;;;;;3.42;86.66;100090.77;120408;1147;27388;-64
2020/12/25 09:25:03;;;;;;;13.90;3.70;;;;;;;3.44;86.54;100096.62;120011;1148;22928;-66
2020/12/25 09:27:33;;;;;;;14.00;4.20;;;;;;;3.47;86.61;100101.30;120429;1147;26899;-64
2020/12/25 09:30:06;;;;;;;13.45;3.90;;;;;;;3.47;86.37;100103.27;120125;1148;24637;-65
2020/12/25 09:32:36;;;;;;;10.93;3.90;;;;;;;3.46;86.36;100115.50;120432;1148;23488;-64
2020/12/25 09:35:06;;;;;;;10.33;3.07;;;;;;;3.43;86.44;100114.41;120285;1147;25003;-65
2020/12/25 09:37:35;;;;;;;9.95;3.25;;;;;;;3.41;86.73;100108.55;120693;1147;23004;-65
2020/12/25 09:40:05;;;;;;;11.83;3.50;;;;;;;3.39;86.34;100104.67;120258;1147;23867;-65
2020/12/25 09:42:38;;;;;;;12.45;3.50;;;;;;;3.39;86.76;100108.21;120425;1148;23022;-63
2020/12/25 09:45:07;;;;;;;11.63;3.60;;;;;;;3.41;86.38;100102.25;120718;1147;22927;-65
2020/12/25 09:47:36;;;;;;;13.60;4.10;;;;;;;3.44;86.76;100104.91;120688;1147;22910;-64
2020/12/25 09:50:07;;;;;;;10.60;3.37;;;;;;;3.46;86.68;100102.48;120398;1148;22939;-64
2020/12/25 09:52:36;;;;;;;10.07;3.63;;;;;;;3.45;86.29;100097.41;120434;1148;22938;-64
2020/12/25 09:55:05;;;;;;;13.73;3.83;;;;;;;3.44;86.59;100098.60;120484;1147;22911;-63
2020/12/25 09:57:34;;;;;;;14.73;4.30;;;;;;;3.47;86.71;100100.51;120256;1148;23003;-63
2020/12/25 10:00:09;;;;;;;14.03;4.27;;;;;;;3.50;86.73;100097.65;120401;1148;22967;-65
2020/12/25 10:02:40;;;;;;;14.10;3.90;;;;;;;3.54;86.40;100094.81;120563;1148;22917;-64
2020/12/25 10:05:10;;;;;;;12.07;3.90;;;;;;;3.57;86.36;100093.93;120610;1147;26504;-65
2020/12/25 10:07:40;;;;;;;14.63;4.53;;;;;;;3.58;86.29;100087.22;120620;1147;22934;-64
2020/12/25 10:10:09;;;;;;;10.47;3.23;;;;;;;3.59;86.32;100088.75;120341;1148;23068;-63
2020/12/25 10:12:39;;;;;;;11.95;3.00;;;;;;;3.59;85.93;100092.29;120691;1148;22944;-63
2020/12/25 10:15:08;;;;;;;7.07;2.07;;;;;;;3.57;85.53;100096.69;120537;1148;23030;-60
2020/12/25 10:17:37;;;;;;;10.63;2.60;;;;;;;3.54;85.93;100090.05;120855;1147;22910;-62
2020/12/25 10:20:07;;;;;;;11.43;2.40;;;;;;;3.50;85.51;100099.66;120144;1148;22995;-61
2020/12/25 10:22:37;;;;;;;7.75;2.00;;;;;;;3.48;85.59;100093.77;120445;1148;23003;-63
2020/12/25 10:25:07;;;;;;;7.70;1.87;;;;;;;3.45;85.13;100106.47;120515;1147;23882;-65
2020/12/25 10:27:36;;;;;;;8.33;1.60;;;;;;;3.39;84.73;100091.66;120340;1148;22907;-64
2020/12/25 10:30:06;;;;;;;7.03;1.27;;;;;;;3.32;84.79;100100.10;120437;1148;23887;-62
2020/12/25 10:32:35;;;;;;;6.10;1.40;;;;;;;3.29;85.05;100093.45;120136;1148;22927;-62
2020/12/25 10:35:05;;;;;;;9.50;3.27;;;;;;;3.27;85.19;100090.36;120228;1147;22934;-61
2020/12/25 10:37:36;;;;;;;11.10;2.20;;;;;;;3.27;85.36;100108.89;120422;1147;26852;-61
2020/12/25 10:40:06;;;;;;;7.57;1.70;;;;;;;3.29;85.18;100104.49;120346;1147;22955;-62
2020/12/25 10:42:36;;;;;;;7.03;2.10;;;;;;;3.27;85.23;100106.91;120561;1147;22894;-60
2020/12/25 10:45:06;;;;;;;10.97;2.33;;;;;;;3.26;85.32;100113.66;120494;1148;22945;-60
2020/12/25 10:47:36;;;;;;;10.37;2.90;;;;;;;3.26;85.19;100118.39;120243;1148;22938;-65
2020/12/25 10:50:05;;;;;;;;;;;;;;;3.26;85.02;100126.66;120528;1147;22932;-61
2020/12/25 10:52:34;;;;;;;12.75;2.45;;;;;;;3.25;85.17;100128.64;120337;1148;21569;-61
2020/12/25 10:55:04;;;;;;;9.95;3.22;;;;;;;3.28;85.38;100135.28;120160;1148;24637;-61
2020/12/25 10:57:33;;;;;;;10.25;3.25;;;;;;;3.30;85.42;100138.39;120743;1147;22981;-61
2020/12/25 11:00:03;;;;;;;10.60;3.43;;;;;;;3.32;85.27;100143.46;120360;1148;23050;-62
2020/12/25 11:02:33;;;;;;;11.07;3.10;;;;;;;3.33;85.30;100134.77;122839;1147;23025;-60
2020/12/25 11:05:02;;;;;;;8.97;2.10;;;;;;;3.31;84.75;100139.92;120413;1148;23499;-60
2020/12/25 11:07:31;;;;;;;9.27;2.20;;;;;;;3.27;84.78;100147.52;120439;1147;22949;-63
2020/12/25 11:10:01;;;;;;;8.57;1.93;;;;;;;3.26;84.90;100134.94;120126;1147;27467;-62
2020/12/25 11:12:30;;;;;;;11.20;2.10;;;;;;;3.27;85.11;100139.23;120340;1148;22919;-61
2020/12/25 11:14:59;;;;;;;9.80;2.05;;;;;;;3.27;84.87;100130.96;120236;1147;27263;-60
2020/12/25 11:17:28;;;;;;;9.50;1.70;;;;;;;3.26;84.80;100140.45;120170;1148;22968;-61
2020/12/25 11:19:57;;;;;;;9.60;2.00;;;;;;;3.26;84.98;100140.45;120246;1148;22928;-61
2020/12/25 11:22:26;;;;;;;10.80;2.07;;;;;;;3.25;85.00;100144.41;120247;1148;24696;-62
2020/12/25 11:24:56;;;;;;;9.57;2.30;;;;;;;3.26;84.67;100148.73;120247;1148;22922;-61
2020/12/25 11:27:25;;;;;;;9.93;2.33;;;;;;;3.27;85.36;100139.23;120271;1148;23080;-60
2020/12/25 11:29:54;;;;;;;9.15;2.35;;;;;;;3.29;84.91;100139.58;120117;1148;23380;-60
2020/12/25 11:32:23;;;;;;;10.83;2.43;;;;;;;3.31;84.81;100144.69;120214;1147;22916;-62
2020/12/25 11:34:52;;;;;;;8.03;2.10;;;;;;;3.34;85.08;100143.80;120244;1148;22981;-61
2020/12/25 11:37:22;;;;;;;11.25;2.75;;;;;;;3.35;84.95;100148.91;120115;1148;27987;-62
2020/12/25 11:39:51;;;;;;;11.57;2.73;;;;;;;3.35;85.07;100148.91;120324;1147;22915;-62
2020/12/25 11:42:20;;;;;;;12.07;2.90;;;;;;;3.36;84.73;100150.45;120370;1147;22972;-62
2020/12/25 11:44:49;;;;;;;10.97;2.90;;;;;;;3.35;84.04;100157.19;120134;1148;26434;-62